Time;durP1;ratioP1;P1;durP2;ratioP2;P2;SDS_P1;SDS_P2;PMS_P1;PMS_P2;Temp;Humidity;BMP_temperature;BMP_pressure;BME280_temperature;BME280_humidity;BME280_pressure;Samples;Min_cycle;Max_cycle;Signal;HPM_P1;HPM_P2
2022/06/20 00:01:54;;;;;;;;;;;19.30;64.60;;;;;;4972437;28;19928;-93
2022/06/20 00:04:19;;;;;;;;;;;19.30;64.60;;;;;;4964250;28;19925;-94
2022/06/20 00:06:45;;;;;;;;;;;19.30;64.50;;;;;;4964241;28;19915;-93
2022/06/20 00:09:17;;;;;;;;;;;19.30;64.60;;;;;;4982650;28;19930;-93
2022/06/20 00:11:44;;;;;;;;;;;19.30;64.50;;;;;;4965785;28;19914;-94
2022/06/20 00:14:15;;;;;;;;;;;19.20;64.50;;;;;;4981875;28;19965;-93
2022/06/20 00:16:41;;;;;;;;;;;19.30;64.50;;;;;;4960526;28;19914;-93
2022/06/20 00:19:06;;;;;;;;;;;19.30;64.50;;;;;;4967149;28;19919;-94
2022/06/20 00:21:35;;;;;;;;;;;19.30;64.50;;;;;;4967950;28;19922;-93
2022/06/20 00:24:00;;;;;;;;;;;19.30;64.50;;;;;;4965844;28;19925;-92
2022/06/20 00:26:25;;;;;;;;;;;19.30;64.40;;;;;;4964809;28;19914;-92
2022/06/20 00:28:51;;;;;;;;;;;19.30;64.40;;;;;;4965144;28;19922;-94
2022/06/20 00:31:16;;;;;;;;;;;19.30;64.50;;;;;;4981712;28;20397;-93
2022/06/20 00:33:42;;;;;;;;;;;19.40;64.70;;;;;;4964597;28;19985;-93
2022/06/20 00:36:07;;;;;;;;;;;19.40;64.60;;;;;;4955794;28;20012;-93
2022/06/20 00:38:35;;;;;;;;;;;19.50;64.50;;;;;;4976338;28;20344;-93
2022/06/20 00:41:04;;;;;;;;;;;19.40;64.50;;;;;;4964283;28;19921;-93
2022/06/20 00:43:38;;;;;;;;;;;19.50;64.40;;;;;;4979257;28;19929;-92
2022/06/20 00:46:06;;;;;;;;;;;19.50;64.30;;;;;;4980606;28;20009;-94
2022/06/20 00:48:44;;;;;;;;;;;19.40;64.20;;;;;;4981113;28;19922;-93
2022/06/20 00:51:16;;;;;;;;;;;19.40;64.20;;;;;;4964240;28;19949;-92
2022/06/20 00:53:44;;;;;;;;;;;19.30;64.20;;;;;;4966993;28;19923;-92
2022/06/20 00:56:13;;;;;;;;;;;19.30;64.10;;;;;;4960720;28;20386;-92
2022/06/20 00:58:42;;;;;;;;;;;19.30;64.10;;;;;;4984712;28;19918;-92
2022/06/20 01:01:12;;;;;;;;;;;19.30;64.20;;;;;;4976330;28;20433;-92
2022/06/20 01:03:39;;;;;;;;;;;19.30;64.30;;;;;;4960026;28;19978;-92
2022/06/20 01:06:19;;;;;;;;;;;19.30;64.40;;;;;;4964521;28;20001;-92
2022/06/20 01:08:51;;;;;;;;;;;19.20;64.30;;;;;;4986845;28;19919;-93
2022/06/20 01:11:21;;;;;;;;;;;19.20;64.40;;;;;;4986621;28;19914;-93
2022/06/20 01:13:47;;;;;;;;;;;19.20;64.40;;;;;;4963127;28;20374;-92
2022/06/20 01:16:17;;;;;;;;;;;19.20;64.30;;;;;;4978743;28;19921;-93
2022/06/20 01:18:44;;;;;;;;;;;19.20;64.40;;;;;;4965997;28;19922;-92
2022/06/20 01:21:18;;;;;;;;;;;19.20;64.40;;;;;;4964058;28;20004;-92
2022/06/20 01:23:56;;;;;;;;;;;19.20;64.40;;;;;;4959994;29;20008;-92
2022/06/20 01:26:34;;;;;;;;;;;19.20;64.40;;;;;;4973773;28;19915;-92
2022/06/20 01:29:01;;;;;;;;;;;19.20;64.40;;;;;;4965227;28;19926;-93
2022/06/20 01:31:30;;;;;;;;;;;19.10;64.50;;;;;;4963372;28;19929;-92
2022/06/20 01:33:57;;;;;;;;;;;19.10;64.50;;;;;;4962091;28;19961;-93
2022/06/20 01:39:27;;;;;;;;;;;19.00;64.50;;;;;;4922856;29;19971;-93
2022/06/20 01:44:38;;;;;;;;;;;18.90;64.60;;;;;;4955528;28;19972;-92
2022/06/20 01:47:04;;;;;;;;;;;19.00;64.70;;;;;;4965035;28;20056;-92
2022/06/20 01:49:30;;;;;;;;;;;19.00;64.70;;;;;;4962840;28;20398;-93
2022/06/20 01:52:03;;;;;;;;;;;18.90;64.70;;;;;;4964553;28;20517;-92
2022/06/20 01:54:30;;;;;;;;;;;19.00;64.70;;;;;;4963473;28;19918;-92
2022/06/20 01:56:55;;;;;;;;;;;19.00;64.70;;;;;;4979323;28;19969;-93
2022/06/20 01:59:32;;;;;;;;;;;19.00;64.60;;;;;;4979927;28;19966;-93
2022/06/20 02:01:58;;;;;;;;;;;19.00;64.50;;;;;;4963000;28;20338;-93
2022/06/20 02:04:25;;;;;;;;;;;19.00;64.60;;;;;;4980380;28;19968;-92
2022/06/20 02:06:51;;;;;;;;;;;19.00;64.40;;;;;;4969758;28;19914;-92
2022/06/20 02:09:17;;;;;;;;;;;19.00;64.40;;;;;;4979146;28;19925;-93
2022/06/20 02:11:46;;;;;;;;;;;19.00;64.30;;;;;;4960197;28;20350;-92
2022/06/20 02:14:14;;;;;;;;;;;19.00;64.40;;;;;;4962051;28;20366;-93
2022/06/20 02:16:41;;;;;;;;;;;18.90;64.30;;;;;;4963734;28;19990;-92
2022/06/20 02:19:08;;;;;;;;;;;18.90;64.20;;;;;;4962431;28;19918;-92
2022/06/20 02:21:35;;;;;;;;;;;18.90;64.20;;;;;;4984181;28;19921;-93
2022/06/20 02:24:09;;;;;;;;;;;18.80;64.20;;;;;;4971551;28;19925;-92
2022/06/20 02:26:36;;;;;;;;;;;18.90;64.40;;;;;;4961770;28;19915;-92
2022/06/20 02:29:20;;;;;;;;;;;18.90;64.40;;;;;;4978125;28;19922;-92
2022/06/20 02:31:46;;;;;;;;;;;18.90;64.40;;;;;;4970928;28;19914;-92
2022/06/20 02:34:20;;;;;;;;;;;18.80;64.40;;;;;;4961644;28;19964;-92
2022/06/20 02:36:48;;;;;;;;;;;18.90;64.40;;;;;;4979804;28;20371;-92
2022/06/20 02:39:14;;;;;;;;;;;18.80;64.50;;;;;;4980823;28;19914;-93
2022/06/20 02:41:40;;;;;;;;;;;18.90;64.60;;;;;;4979746;28;19933;-92
2022/06/20 02:44:07;;;;;;;;;;;19.00;64.60;;;;;;4979404;28;19929;-92
2022/06/20 02:46:35;;;;;;;;;;;19.00;64.60;;;;;;4973521;28;19903;-92
2022/06/20 02:49:02;;;;;;;;;;;19.00;64.60;;;;;;4963370;28;20445;-92
2022/06/20 02:51:32;;;;;;;;;;;19.00;64.50;;;;;;4963260;28;20270;-93
2022/06/20 02:53:59;;;;;;;;;;;19.00;64.50;;;;;;4962329;28;20389;-91
2022/06/20 02:56:27;;;;;;;;;;;19.00;64.50;;;;;;4982085;28;19918;-92
2022/06/20 02:58:56;;;;;;;;;;;19.00;64.60;;;;;;4962627;28;19965;-92
2022/06/20 03:01:25;;;;;;;;;;;19.00;64.60;;;;;;4962370;28;19930;-92
2022/06/20 03:03:53;;;;;;;;;;;19.10;64.60;;;;;;4979124;28;19914;-92
2022/06/20 03:06:23;;;;;;;;;;;19.10;64.50;;;;;;4979988;28;20050;-92
2022/06/20 03:08:48;;;;;;;;;;;19.00;64.50;;;;;;4945806;29;19926;-93
2022/06/20 03:11:14;;;;;;;;;;;18.80;64.10;;;;;;4977113;28;19922;-93
2022/06/20 03:13:41;;;;;;;;;;;18.80;64.30;;;;;;4979546;28;20322;-93
2022/06/20 03:16:07;;;;;;;;;;;18.80;64.30;;;;;;4965785;28;19934;-94
2022/06/20 03:18:35;;;;;;;;;;;18.70;64.30;;;;;;4967514;28;19914;-95
2022/06/20 03:21:00;;;;;;;;;;;18.70;64.40;;;;;;4969041;28;20275;-94
2022/06/20 03:23:26;;;;;;;;;;;18.70;64.70;;;;;;4967478;28;19914;-95
2022/06/20 03:25:53;;;;;;;;;;;18.70;64.70;;;;;;4967175;28;19930;-96
2022/06/20 03:28:20;;;;;;;;;;;18.70;64.50;;;;;;4985107;28;19989;-94
2022/06/20 03:30:46;;;;;;;;;;;18.60;64.60;;;;;;4978582;28;19914;-95
2022/06/20 03:33:13;;;;;;;;;;;18.70;64.80;;;;;;4966073;28;19919;-96
2022/06/20 03:35:41;;;;;;;;;;;18.70;64.80;;;;;;4967556;28;19981;-96
2022/06/20 03:38:11;;;;;;;;;;;18.70;64.60;;;;;;4977269;28;19946;-95
2022/06/20 03:40:39;;;;;;;;;;;18.70;64.50;;;;;;4988730;28;19997;-95
2022/06/20 03:43:05;;;;;;;;;;;18.70;64.40;;;;;;4966665;28;19922;-94
2022/06/20 03:45:32;;;;;;;;;;;18.60;64.40;;;;;;4966785;28;19957;-95
2022/06/20 03:48:01;;;;;;;;;;;18.60;64.40;;;;;;4967900;28;19918;-93
2022/06/20 03:50:32;;;;;;;;;;;18.60;64.50;;;;;;4953969;28;20398;-94
2022/06/20 03:53:16;;;;;;;;;;;18.50;64.50;;;;;;4978858;28;19982;-94
2022/06/20 03:55:58;;;;;;;;;;;18.50;64.50;;;;;;4964029;28;19965;-94
2022/06/20 03:58:23;;;;;;;;;;;18.50;64.60;;;;;;4964537;28;19921;-93
2022/06/20 04:01:00;;;;;;;;;;;18.50;64.60;;;;;;4983677;28;19918;-94
2022/06/20 04:03:34;;;;;;;;;;;18.50;64.60;;;;;;4963712;28;20391;-94
2022/06/20 04:06:02;;;;;;;;;;;18.50;64.70;;;;;;4965027;28;19918;-95
2022/06/20 04:11:18;;;;;;;;;;;18.50;64.70;;;;;;4982090;28;20002;-94
2022/06/20 04:13:43;;;;;;;;;;;18.40;64.80;;;;;;4988821;28;19918;-95
2022/06/20 04:16:13;;;;;;;;;;;18.40;64.80;;;;;;4966445;28;19920;-95
2022/06/20 04:18:50;;;;;;;;;;;18.40;64.70;;;;;;4966802;28;19929;-94
2022/06/20 04:21:23;;;;;;;;;;;18.30;64.70;;;;;;4966223;28;19949;-94
2022/06/20 04:23:56;;;;;;;;;;;18.30;64.80;;;;;;4951195;28;20025;-95
2022/06/20 04:26:28;;;;;;;;;;;18.30;65.00;;;;;;4966549;28;19914;-94
2022/06/20 04:29:12;;;;;;;;;;;18.30;65.00;;;;;;4966142;28;19929;-95
2022/06/20 04:31:38;;;;;;;;;;;18.30;65.10;;;;;;4965734;28;19922;-94
2022/06/20 04:34:13;;;;;;;;;;;18.30;65.00;;;;;;4981682;28;19918;-94
2022/06/20 04:37:10;;;;;;;;;;;18.30;64.90;;;;;;4982476;28;19921;-94
2022/06/20 04:39:49;;;;;;;;;;;18.30;64.90;;;;;;4932574;28;20464;-94
2022/06/20 04:42:14;;;;;;;;;;;18.30;65.00;;;;;;4964221;28;20425;-94
2022/06/20 04:44:45;;;;;;;;;;;18.30;65.00;;;;;;4979490;28;19923;-94
2022/06/20 04:47:29;;;;;;;;;;;18.30;65.10;;;;;;4963499;28;20275;-93
2022/06/20 04:49:55;;;;;;;;;;;18.40;65.20;;;;;;4962681;28;20244;-93
2022/06/20 04:52:23;;;;;;;;;;;18.50;65.30;;;;;;4962680;28;19932;-93
2022/06/20 04:54:48;;;;;;;;;;;18.50;65.40;;;;;;4961464;28;19914;-93
2022/06/20 04:57:14;;;;;;;;;;;18.60;65.40;;;;;;4963698;28;19925;-93
2022/06/20 04:59:40;;;;;;;;;;;18.70;65.40;;;;;;4963268;28;19914;-93
2022/06/20 05:02:09;;;;;;;;;;;18.80;65.30;;;;;;4963183;28;19922;-93
2022/06/20 05:04:40;;;;;;;;;;;18.80;65.20;;;;;;4962509;28;19920;-92
2022/06/20 05:07:10;;;;;;;;;;;18.80;65.10;;;;;;4951750;28;19921;-92
2022/06/20 05:09:41;;;;;;;;;;;18.80;65.20;;;;;;4979658;28;19918;-92
2022/06/20 05:12:14;;;;;;;;;;;18.90;65.00;;;;;;4962293;28;19921;-92
2022/06/20 05:15:00;;;;;;;;;;;18.90;64.90;;;;;;4978267;28;19914;-92
2022/06/20 05:17:27;;;;;;;;;;;18.90;64.90;;;;;;4942028;28;20009;-91
2022/06/20 05:19:55;;;;;;;;;;;19.00;64.90;;;;;;4974770;28;20274;-93
2022/06/20 05:22:29;;;;;;;;;;;19.00;64.70;;;;;;4978099;28;19922;-92
2022/06/20 05:24:56;;;;;;;;;;;19.00;64.60;;;;;;4980649;28;19925;-95
2022/06/20 05:27:37;;;;;;;;;;;19.00;64.50;;;;;;4956510;23;20401;-90
2022/06/20 05:30:06;;;;;;;;;;;19.00;64.50;;;;;;4923063;29;19922;-92
2022/06/20 05:32:46;;;;;;;;;;;18.90;64.50;;;;;;4936720;29;19933;-91
2022/06/20 05:35:20;;;;;;;;;;;18.80;64.50;;;;;;4931462;29;19923;-92
2022/06/20 05:37:57;;;;;;;;;;;18.70;64.70;;;;;;4933701;28;19923;-92
2022/06/20 05:45:58;;;;;;;;;;;19.00;65.30;;;;;;5481134;23;19937;-92
2022/06/20 05:53:51;;;;;;;;;;;19.30;65.20;;;;;;5620473;23;20001;-94
2022/06/20 05:56:19;;;;;;;;;;;19.30;64.90;;;;;;4926667;29;19922;-95
2022/06/20 05:58:45;;;;;;;;;;;19.30;64.80;;;;;;4926547;29;20004;-93
2022/06/20 06:01:14;;;;;;;;;;;19.40;64.70;;;;;;4924752;29;19915;-94
2022/06/20 06:03:56;;;;;;;;;;;19.40;64.90;;;;;;4907306;29;19923;-93
2022/06/20 06:06:24;;;;;;;;;;;19.50;65.00;;;;;;4940245;29;20406;-95
2022/06/20 06:08:56;;;;;;;;;;;19.50;65.00;;;;;;4939998;29;19914;-94
2022/06/20 06:11:36;;;;;;;;;;;19.50;65.00;;;;;;4926550;29;19919;-95
2022/06/20 06:14:05;;;;;;;;;;;19.60;64.90;;;;;;4948619;28;20269;-94
2022/06/20 06:16:48;;;;;;;;;;;19.70;65.00;;;;;;4950041;28;20018;-93
2022/06/20 06:19:19;;;;;;;;;;;19.80;64.90;;;;;;4946803;28;20642;-94
2022/06/20 06:21:47;;;;;;;;;;;19.80;64.90;;;;;;4977811;28;19926;-94
2022/06/20 06:24:15;;;;;;;;;;;19.90;64.70;;;;;;4958501;28;19922;-93
2022/06/20 06:26:41;;;;;;;;;;;19.90;64.80;;;;;;4978187;28;19915;-94
2022/06/20 06:29:13;;;;;;;;;;;20.10;65.00;;;;;;4977441;28;20397;-94
2022/06/20 06:31:43;;;;;;;;;;;20.20;65.00;;;;;;4960810;28;19925;-93
2022/06/20 06:34:27;;;;;;;;;;;20.40;65.40;;;;;;4960722;28;19918;-93
2022/06/20 06:36:54;;;;;;;;;;;20.60;65.60;;;;;;4976045;28;20594;-93
2022/06/20 06:42:14;;;;;;;;;;;21.10;66.30;;;;;;4967135;28;20033;-92
2022/06/20 06:44:42;;;;;;;;;;;21.50;66.80;;;;;;4977012;28;19965;-93
2022/06/20 06:47:34;;;;;;;;;;;21.80;67.00;;;;;;4959188;28;20936;-92
2022/06/20 06:52:46;;;;;;;;;;;22.60;67.30;;;;;;4974303;28;20013;-91
2022/06/20 06:55:52;;;;;;;;;;;22.90;67.00;;;;;;4945672;28;19918;-92
2022/06/20 06:58:25;;;;;;;;;;;23.20;66.80;;;;;;4959341;29;20883;-92
2022/06/20 07:00:54;;;;;;;;;;;23.40;66.40;;;;;;4974736;28;19925;-91
2022/06/20 07:03:22;;;;;;;;;;;23.60;66.60;;;;;;4974637;28;19925;-90
2022/06/20 07:05:51;;;;;;;;;;;23.90;67.00;;;;;;4974345;28;19914;-91
2022/06/20 07:08:20;;;;;;;;;;;24.30;67.70;;;;;;4975171;28;19918;-91
2022/06/20 07:10:45;;;;;;;;;;;24.80;68.10;;;;;;4975211;28;19961;-91
2022/06/20 07:13:31;;;;;;;;;;;25.30;67.10;;;;;;4958320;29;19977;-91
2022/06/20 07:15:59;;;;;;;;;;;25.40;66.30;;;;;;4965257;28;20014;-90
2022/06/20 07:18:30;;;;;;;;;;;25.50;66.10;;;;;;4973855;28;20036;-91
2022/06/20 07:20:56;;;;;;;;;;;25.80;66.40;;;;;;4957922;29;19926;-91
2022/06/20 07:23:22;;;;;;;;;;;26.20;66.50;;;;;;4958462;29;20282;-91
2022/06/20 07:25:50;;;;;;;;;;;26.60;66.70;;;;;;4957658;29;19918;-91
2022/06/20 07:28:18;;;;;;;;;;;27.00;66.00;;;;;;4957892;29;19911;-90
2022/06/20 07:30:47;;;;;;;;;;;27.30;65.30;;;;;;4974841;28;19914;-90
2022/06/20 07:33:17;;;;;;;;;;;27.40;64.90;;;;;;4961487;28;19921;-90
2022/06/20 07:35:45;;;;;;;;;;;27.50;64.30;;;;;;4960792;28;19914;-89
2022/06/20 07:38:10;;;;;;;;;;;27.60;63.90;;;;;;4961502;28;20420;-89
2022/06/20 07:40:42;;;;;;;;;;;27.50;63.80;;;;;;4962762;28;19918;-89
2022/06/20 07:43:20;;;;;;;;;;;27.40;63.60;;;;;;4962138;28;19922;-89
2022/06/20 07:45:47;;;;;;;;;;;27.20;63.30;;;;;;4961278;28;19982;-90
2022/06/20 07:48:49;;;;;;;;;;;27.00;63.30;;;;;;4960764;28;20713;-89
2022/06/20 07:51:21;;;;;;;;;;;26.80;63.70;;;;;;4969155;28;20016;-89
2022/06/20 07:54:05;;;;;;;;;;;26.70;65.20;;;;;;4979649;28;19920;-89
2022/06/20 07:56:35;;;;;;;;;;;26.70;65.10;;;;;;5004590;28;20012;-89
2022/06/20 07:59:19;;;;;;;;;;;26.80;65.70;;;;;;4972060;28;20004;-91
2022/06/20 08:04:52;;;;;;;;;;;27.80;67.90;;;;;;4920571;28;20761;-94
2022/06/20 08:07:44;;;;;;;;;;;28.70;68.30;;;;;;4943258;29;20302;-91
2022/06/20 08:10:26;;;;;;;;;;;;;;;;;;;;;
2022/06/20 08:12:58;;;;;;;;;;;30.50;65.90;;;;;;4960906;29;20021;-90
2022/06/20 08:15:27;;;;;;;;;;;30.70;61.30;;;;;;4968794;28;19914;-90
2022/06/20 08:17:57;;;;;;;;;;;30.80;62.50;;;;;;4970765;28;19985;-90
2022/06/20 08:20:26;;;;;;;;;;;30.80;61.90;;;;;;4958248;28;19935;-87
2022/06/20 08:22:52;;;;;;;;;;;30.70;60.80;;;;;;4972239;28;19930;-87
2022/06/20 08:25:24;;;;;;;;;;;30.40;60.50;;;;;;4974562;28;20021;-89
2022/06/20 08:27:56;;;;;;;;;;;30.20;60.10;;;;;;4966584;28;20285;-88
2022/06/20 08:30:27;;;;;;;;;;;30.20;58.20;;;;;;4959427;28;19922;-88
2022/06/20 08:32:55;;;;;;;;;;;30.20;60.10;;;;;;4977122;28;19913;-88
2022/06/20 08:35:29;;;;;;;;;;;30.30;59.20;;;;;;4971961;28;19918;-87
2022/06/20 08:38:06;;;;;;;;;;;30.30;58.70;;;;;;4972213;28;19914;-89
2022/06/20 08:40:50;;;;;;;;;;;30.40;59.90;;;;;;4972466;28;19937;-89
2022/06/20 08:43:25;;;;;;;;;;;30.60;59.10;;;;;;4984559;28;19922;-89
2022/06/20 08:45:56;;;;;;;;;;;30.70;59.20;;;;;;4941952;29;19926;-87
2022/06/20 08:48:22;;;;;;;;;;;30.80;58.90;;;;;;4922222;29;19915;-88
2022/06/20 08:50:53;;;;;;;;;;;30.80;57.20;;;;;;4937565;29;19922;-88
2022/06/20 08:53:36;;;;;;;;;;;30.70;54.30;;;;;;4921681;29;19919;-90
2022/06/20 08:56:05;;;;;;;;;;;30.50;55.10;;;;;;4922209;29;19915;-87
2022/06/20 08:58:37;;;;;;;;;;;30.20;54.60;;;;;;4920682;29;20074;-87
2022/06/20 09:01:05;;;;;;;;;;;30.00;54.00;;;;;;4939431;29;20375;-88
2022/06/20 09:03:37;;;;;;;;;;;29.80;54.10;;;;;;4935461;29;20039;-88
2022/06/20 09:06:08;;;;;;;;;;;29.80;55.50;;;;;;4938047;29;20442;-88
2022/06/20 09:08:48;;;;;;;;;;;29.90;55.30;;;;;;4921427;29;19966;-89
2022/06/20 09:11:13;;;;;;;;;;;29.90;53.20;;;;;;4921920;29;19930;-89
2022/06/20 09:13:59;;;;;;;;;;;29.80;47.90;;;;;;4921562;29;19930;-90
2022/06/20 09:16:31;;;;;;;;;;;29.80;47.20;;;;;;4934532;28;19915;-90
2022/06/20 09:19:15;;;;;;;;;;;29.80;49.30;;;;;;4986213;28;20024;-89
2022/06/20 09:21:53;;;;;;;;;;;29.90;49.70;;;;;;4940679;29;19948;-89
2022/06/20 09:24:30;;;;;;;;;;;29.80;48.70;;;;;;4967945;28;19921;-89
2022/06/20 09:27:06;;;;;;;;;;;29.70;48.70;;;;;;4978496;28;19919;-91
2022/06/20 09:29:35;;;;;;;;;;;30.10;49.80;;;;;;4948815;29;19922;-89
2022/06/20 09:32:26;;;;;;;;;;;31.10;51.20;;;;;;4943319;29;20017;-89
2022/06/20 09:35:10;;;;;;;;;;;32.20;50.20;;;;;;4973714;28;19965;-89
2022/06/20 09:37:44;;;;;;;;;;;33.30;45.20;;;;;;4975627;28;20091;-89
2022/06/20 09:40:19;;;;;;;;;;;33.80;43.30;;;;;;4957899;29;19918;-90
2022/06/20 09:43:09;;;;;;;;;;;33.80;41.20;;;;;;4957830;29;19945;-91
2022/06/20 09:48:19;;;;;;;;;;;34.20;42.00;;;;;;4975035;28;19954;-89
2022/06/20 09:51:21;;;;;;;;;;;34.90;41.00;;;;;;4963534;28;19918;-88
2022/06/20 09:54:14;;;;;;;;;;;35.70;40.30;;;;;;4968981;28;19949;-90
2022/06/20 09:57:16;;;;;;;;;;;36.30;38.20;;;;;;4975447;28;19925;-89
2022/06/20 09:59:48;;;;;;;;;;;37.00;34.00;;;;;;4961255;28;20372;-89
2022/06/20 10:02:22;;;;;;;;;;;36.70;28.70;;;;;;4959373;28;19958;-88
2022/06/20 10:07:15;;;;;;;;;;;35.60;27.40;;;;;;4965057;28;19964;-88
2022/06/20 10:10:00;;;;;;;;;;;35.10;29.10;;;;;;4969760;28;19972;-88
2022/06/20 10:12:35;;;;;;;;;;;35.00;29.10;;;;;;4972785;28;19986;-87
2022/06/20 10:15:01;;;;;;;;;;;35.70;29.50;;;;;;4963286;28;19915;-90
2022/06/20 10:17:44;;;;;;;;;;;36.60;29.50;;;;;;4956948;28;19923;-89
2022/06/20 10:20:24;;;;;;;;;;;37.40;28.50;;;;;;4975760;28;19925;-89
2022/06/20 10:23:09;;;;;;;;;;;37.90;27.60;;;;;;4981120;28;19922;-86
2022/06/20 10:25:53;;;;;;;;;;;37.80;26.30;;;;;;4969587;28;19976;-87
2022/06/20 10:28:25;;;;;;;;;;;37.70;26.00;;;;;;4974116;28;19921;-88
2022/06/20 10:31:17;;;;;;;;;;;38.20;25.30;;;;;;4980494;28;19915;-88
2022/06/20 10:34:01;;;;;;;;;;;38.00;22.10;;;;;;4956939;28;19957;-88
2022/06/20 10:36:36;;;;;;;;;;;37.20;21.10;;;;;;4960080;28;20021;-89
2022/06/20 10:39:05;;;;;;;;;;;36.30;22.00;;;;;;4959044;28;19921;-89
2022/06/20 10:41:32;;;;;;;;;;;35.80;23.00;;;;;;4974242;28;19915;-87
2022/06/20 10:44:05;;;;;;;;;;;35.70;23.20;;;;;;4975340;28;19922;-87
2022/06/20 10:46:39;;;;;;;;;;;35.70;23.30;;;;;;4951788;28;19918;-89
2022/06/20 10:49:11;;;;;;;;;;;35.80;24.20;;;;;;4975881;28;20263;-88
2022/06/20 10:51:36;;;;;;;;;;;36.50;23.80;;;;;;4982441;28;19956;-89
2022/06/20 10:54:08;;;;;;;;;;;37.20;23.50;;;;;;4949242;28;19926;-89
2022/06/20 10:56:53;;;;;;;;;;;38.00;22.90;;;;;;4968402;28;20374;-88
2022/06/20 10:59:37;;;;;;;;;;;38.90;22.20;;;;;;4973871;28;20064;-89
2022/06/20 11:02:29;;;;;;;;;;;39.90;22.10;;;;;;4967681;28;19935;-88
2022/06/20 11:05:00;;;;;;;;;;;40.80;19.70;;;;;;4967350;28;19914;-88
2022/06/20 11:07:37;;;;;;;;;;;41.20;18.50;;;;;;4947066;28;19922;-87
2022/06/20 11:10:06;;;;;;;;;;;41.80;18.80;;;;;;4972684;28;19921;-89
2022/06/20 11:12:34;;;;;;;;;;;41.80;16.40;;;;;;4966437;28;19923;-88
2022/06/20 11:15:12;;;;;;;;;;;41.30;16.70;;;;;;4990130;28;19960;-88
2022/06/20 11:17:50;;;;;;;;;;;40.40;17.10;;;;;;4977691;28;19957;-88
2022/06/20 11:20:43;;;;;;;;;;;39.50;17.40;;;;;;4977660;28;19921;-89
2022/06/20 11:23:18;;;;;;;;;;;39.00;17.40;;;;;;4975124;28;19953;-88
2022/06/20 11:25:58;;;;;;;;;;;39.40;18.10;;;;;;4946362;29;20344;-88
2022/06/20 11:28:48;;;;;;;;;;;39.30;17.90;;;;;;4940394;28;20367;-88
2022/06/20 11:31:46;;;;;;;;;;;38.80;18.00;;;;;;4971885;28;19918;-89
2022/06/20 11:34:30;;;;;;;;;;;37.80;18.10;;;;;;4924054;28;19918;-90
2022/06/20 11:37:03;;;;;;;;;;;36.70;18.80;;;;;;4971123;28;19921;-88
2022/06/20 11:39:42;;;;;;;;;;;35.90;19.40;;;;;;4958639;28;19946;-88
2022/06/20 11:42:08;;;;;;;;;;;35.80;19.90;;;;;;4967516;28;20302;-88
2022/06/20 11:44:33;;;;;;;;;;;36.30;19.60;;;;;;4959605;28;19934;-88
2022/06/20 11:47:20;;;;;;;;;;;36.20;19.60;;;;;;4969746;28;19914;-88
2022/06/20 11:49:46;;;;;;;;;;;36.50;19.60;;;;;;4955936;28;19912;-90
2022/06/20 11:52:17;;;;;;;;;;;37.10;19.40;;;;;;4956520;28;20013;-89
2022/06/20 11:55:04;;;;;;;;;;;37.10;19.50;;;;;;4958811;28;20653;-90
2022/06/20 11:57:32;;;;;;;;;;;36.70;19.20;;;;;;4962439;28;19926;-87
2022/06/20 12:00:03;;;;;;;;;;;36.30;19.20;;;;;;4959044;28;19918;-87
2022/06/20 12:02:43;;;;;;;;;;;36.40;19.20;;;;;;4930480;29;20002;-88
2022/06/20 12:05:18;;;;;;;;;;;37.00;18.50;;;;;;4938559;29;20017;-89
2022/06/20 12:07:49;;;;;;;;;;;37.60;18.00;;;;;;4942435;29;19918;-90
2022/06/20 12:10:19;;;;;;;;;;;37.70;18.00;;;;;;4947735;29;19915;-89
2022/06/20 12:12:44;;;;;;;;;;;37.80;17.50;;;;;;4959090;29;20000;-90
2022/06/20 12:15:29;;;;;;;;;;;37.70;17.30;;;;;;4945741;29;19922;-90
2022/06/20 12:18:06;;;;;;;;;;;37.50;17.20;;;;;;4944745;29;20025;-91
2022/06/20 12:23:41;;;;;;;;;;;38.50;17.80;;;;;;4961098;29;19929;-90
2022/06/20 12:26:18;;;;;;;;;;;38.90;17.80;;;;;;4951533;29;19926;-89
2022/06/20 12:28:45;;;;;;;;;;;39.30;17.50;;;;;;4925632;29;20395;-90
2022/06/20 12:31:22;;;;;;;;;;;39.80;17.40;;;;;;4922901;29;19919;-89
2022/06/20 12:33:50;;;;;;;;;;;39.40;17.10;;;;;;4946993;29;19914;-91
2022/06/20 12:36:19;;;;;;;;;;;38.80;17.40;;;;;;4940983;29;19950;-91
2022/06/20 12:39:05;;;;;;;;;;;38.30;17.80;;;;;;4939672;29;20001;-89
2022/06/20 12:41:37;;;;;;;;;;;37.80;17.70;;;;;;4949497;29;19919;-89
2022/06/20 12:44:21;;;;;;;;;;;37.30;17.90;;;;;;4941200;29;20476;-89
2022/06/20 12:46:53;;;;;;;;;;;36.80;18.10;;;;;;4924920;29;19990;-90
2022/06/20 12:49:21;;;;;;;;;;;36.40;18.20;;;;;;4941488;29;19906;-88
2022/06/20 12:54:22;;;;;;;;;;;36.30;18.60;;;;;;4953928;28;20363;-93
2022/06/20 12:57:06;;;;;;;;;;;36.30;18.80;;;;;;4973526;28;19915;-92
2022/06/20 12:59:50;;;;;;;;;;;36.30;18.80;;;;;;4952577;29;19914;-93
2022/06/20 13:02:25;;;;;;;;;;;36.00;18.90;;;;;;4976971;28;20370;-94
2022/06/20 13:05:06;;;;;;;;;;;35.60;18.90;;;;;;4959608;28;20453;-95
2022/06/20 13:07:31;;;;;;;;;;;35.30;19.50;;;;;;4975436;28;19933;-94
2022/06/20 13:10:03;;;;;;;;;;;35.00;19.20;;;;;;4985163;28;20318;-95
2022/06/20 13:12:28;;;;;;;;;;;34.60;19.60;;;;;;4965568;28;19957;-94
2022/06/20 13:15:16;;;;;;;;;;;34.50;19.80;;;;;;4954917;28;20391;-95
2022/06/20 13:18:10;;;;;;;;;;;35.10;19.90;;;;;;4959326;28;19925;-96
2022/06/20 13:20:57;;;;;;;;;;;36.10;19.60;;;;;;4914978;29;19915;-94
2022/06/20 13:23:55;;;;;;;;;;;37.10;18.60;;;;;;4936475;28;19953;-94
2022/06/20 13:26:24;;;;;;;;;;;37.60;18.00;;;;;;4954984;28;19994;-95
2022/06/20 13:28:49;;;;;;;;;;;38.00;17.70;;;;;;4981139;28;19914;-95
2022/06/20 13:31:25;;;;;;;;;;;38.30;17.80;;;;;;4982699;28;19918;-95
2022/06/20 13:36:22;;;;;;;;;;;38.80;17.40;;;;;;4965975;28;19919;-94
2022/06/20 13:39:02;;;;;;;;;;;38.80;17.20;;;;;;4965725;28;19918;-94
2022/06/20 13:41:38;;;;;;;;;;;38.90;17.10;;;;;;4963960;28;19930;-95
2022/06/20 13:44:22;;;;;;;;;;;39.30;17.00;;;;;;4961620;28;19922;-94
2022/06/20 13:47:10;;;;;;;;;;;39.90;16.60;;;;;;4975675;28;19918;-96
2022/06/20 13:49:48;;;;;;;;;;;40.00;16.40;;;;;;4970434;28;20287;-96
2022/06/20 13:52:28;;;;;;;;;;;39.80;16.30;;;;;;4984071;28;19918;-96
2022/06/20 13:54:59;;;;;;;;;;;39.10;16.60;;;;;;4946158;29;19918;-96
2022/06/20 13:57:30;;;;;;;;;;;38.30;17.00;;;;;;4966395;28;19914;-96
2022/06/20 14:00:14;;;;;;;;;;;37.90;17.20;;;;;;4970427;28;19921;-96
2022/06/20 14:02:42;;;;;;;;;;;37.80;17.60;;;;;;4974564;28;20371;-95
2022/06/20 14:05:27;;;;;;;;;;;37.70;17.50;;;;;;4961272;28;20375;-95
2022/06/20 14:08:02;;;;;;;;;;;37.20;17.00;;;;;;4962571;29;19986;-95
2022/06/20 14:10:29;;;;;;;;;;;36.20;17.40;;;;;;4944059;29;19926;-93
2022/06/20 14:12:58;;;;;;;;;;;35.50;17.80;;;;;;4946560;29;19926;-96
2022/06/20 14:15:26;;;;;;;;;;;35.00;18.50;;;;;;4961109;29;19918;-96
2022/06/20 14:17:56;;;;;;;;;;;34.80;18.70;;;;;;4947206;29;20020;-92
2022/06/20 14:20:25;;;;;;;;;;;35.00;18.90;;;;;;4943813;29;19918;-93
2022/06/20 14:22:53;;;;;;;;;;;35.00;18.80;;;;;;4953146;28;19921;-94
2022/06/20 14:25:38;;;;;;;;;;;34.90;19.20;;;;;;4957412;28;20005;-93
2022/06/20 14:28:14;;;;;;;;;;;34.90;19.40;;;;;;4954603;28;19964;-93
2022/06/20 14:30:40;;;;;;;;;;;34.80;19.50;;;;;;4961790;28;20009;-92
2022/06/20 14:33:06;;;;;;;;;;;34.50;19.10;;;;;;4965013;28;19941;-93
2022/06/20 14:35:31;;;;;;;;;;;34.30;19.60;;;;;;4984449;28;19918;-94
2022/06/20 14:38:13;;;;;;;;;;;34.20;20.10;;;;;;4979795;28;19926;-94
2022/06/20 14:40:45;;;;;;;;;;;34.00;20.10;;;;;;4949032;29;20005;-93
2022/06/20 14:43:10;;;;;;;;;;;33.80;20.50;;;;;;4955235;28;19932;-93
2022/06/20 14:45:49;;;;;;;;;;;33.60;20.40;;;;;;4952349;29;20001;-92
2022/06/20 14:48:15;;;;;;;;;;;33.20;20.00;;;;;;4956146;28;19918;-92
2022/06/20 14:50:46;;;;;;;;;;;32.70;20.10;;;;;;4971354;28;19921;-93
2022/06/20 14:53:20;;;;;;;;;;;32.40;20.70;;;;;;4959156;28;19925;-95
2022/06/20 14:56:17;;;;;;;;;;;32.20;21.10;;;;;;4985008;28;20040;-94
2022/06/20 14:58:46;;;;;;;;;;;32.10;21.20;;;;;;4969990;28;19936;-95
2022/06/20 15:01:30;;;;;;;;;;;31.90;21.30;;;;;;4991385;28;19918;-95
2022/06/20 15:04:09;;;;;;;;;;;31.80;21.70;;;;;;5042731;23;19927;-92
2022/06/20 15:09:36;;;;;;;;;;;31.60;22.10;;;;;;5492543;23;19914;-95
2022/06/20 15:12:11;;;;;;;;;;;31.60;21.70;;;;;;4972867;28;19945;-93
2022/06/20 15:14:52;;;;;;;;;;;31.50;22.00;;;;;;4965101;28;19925;-94
2022/06/20 15:17:24;;;;;;;;;;;31.30;22.20;;;;;;4970200;29;20375;-95
2022/06/20 15:19:56;;;;;;;;;;;31.20;22.30;;;;;;4933103;29;19933;-94
2022/06/20 15:22:24;;;;;;;;;;;31.20;22.20;;;;;;4918155;29;19987;-95
2022/06/20 15:25:09;;;;;;;;;;;31.10;22.10;;;;;;4935416;29;19906;-89
2022/06/20 15:27:39;;;;;;;;;;;31.00;22.30;;;;;;4928133;29;19919;-88
2022/06/20 15:30:06;;;;;;;;;;;31.00;22.40;;;;;;4941076;29;19915;-89
2022/06/20 15:32:40;;;;;;;;;;;30.90;22.50;;;;;;4927766;29;19915;-87
2022/06/20 15:35:32;;;;;;;;;;;30.80;22.50;;;;;;4934096;29;19965;-88
2022/06/20 15:38:01;;;;;;;;;;;30.80;22.50;;;;;;4915598;29;20013;-86